createdAt,value
2022-12-20T00:00:32.650Z,-0.2126
2022-12-20T00:01:32.785Z,-0.2307
2022-12-20T00:02:32.944Z,-0.1953
2022-12-20T00:03:32.744Z,-0.2097
2022-12-20T00:04:32.766Z,-0.1915
2022-12-20T00:05:32.807Z,-0.2058
2022-12-20T00:06:32.835Z,-0.2058
2022-12-20T00:07:32.864Z,-0.2058
2022-12-20T00:08:32.899Z,-0.1838
2022-12-20T00:09:32.935Z,-0.1982
2022-12-20T00:10:32.963Z,-0.1982
2022-12-20T00:11:32.988Z,-0.159
2022-12-20T00:12:33.020Z,-0.1733
2022-12-20T00:13:33.048Z,-0.1733
2022-12-20T00:14:33.090Z,-0.159
2022-12-20T00:15:33.132Z,-0.159
2022-12-20T00:16:33.162Z,-0.1733
2022-12-20T00:17:33.241Z,-0.1733
2022-12-20T00:18:33.222Z,-0.1733
2022-12-20T00:19:33.251Z,-0.1733
2022-12-20T00:20:33.290Z,-0.1733
2022-12-20T00:21:33.324Z,-0.1733
2022-12-20T00:22:33.363Z,-0.1733
2022-12-20T00:23:33.392Z,-0.1733
2022-12-20T00:24:33.438Z,-0.1877
2022-12-20T00:25:33.460Z,-0.1877
2022-12-20T00:26:33.490Z,-0.1877
2022-12-20T00:27:33.523Z,-0.2021
2022-12-20T00:28:33.557Z,-0.2021
2022-12-20T00:29:33.586Z,-0.2021
2022-12-20T00:30:33.626Z,-0.2021
2022-12-20T00:31:33.777Z,-0.1877
2022-12-20T00:32:33.704Z,-0.1877
2022-12-20T00:33:33.742Z,-0.1877
2022-12-20T00:34:33.771Z,-0.1877
2022-12-20T00:35:33.811Z,-0.1877
2022-12-20T00:36:33.871Z,-0.1877
2022-12-20T00:37:33.883Z,-0.117
2022-12-20T00:38:33.906Z,-0.117
2022-12-20T00:39:33.946Z,-0.08162
2022-12-20T00:40:33.991Z,-0.08162
2022-12-20T00:41:34.091Z,-0.08162
2022-12-20T00:42:34.057Z,-0.06721
2022-12-20T00:43:34.095Z,-0.06721
2022-12-20T00:44:34.121Z,-0.04426
2022-12-20T00:45:34.166Z,-0.05868
2022-12-20T00:46:34.261Z,-0.05868
2022-12-20T00:47:34.229Z,-0.05868
2022-12-20T00:48:34.264Z,-0.07309
2022-12-20T00:49:34.286Z,-0.07309
2022-12-20T00:50:34.321Z,-0.08752
2022-12-20T00:51:34.367Z,-0.07031
2022-12-20T00:52:34.403Z,-0.06936
2022-12-20T00:53:34.425Z,-0.05216
2022-12-20T00:54:34.477Z,-0.08752
2022-12-20T00:55:34.495Z,-0.08752
2022-12-20T00:56:34.522Z,-0.08752
2022-12-20T00:57:34.565Z,-0.07309
2022-12-20T00:58:34.599Z,-0.03773
2022-12-20T00:59:34.642Z,-0.01956
2022-12-20T01:00:34.707Z,-0.03773
2022-12-20T01:01:35.008Z,-0.03773
2022-12-20T01:02:34.937Z,-0.01479
2022-12-20T01:03:34.822Z,-0.02922
2022-12-20T01:04:34.783Z,-0.02922
2022-12-20T01:05:34.824Z,0.02335
2022-12-20T01:06:34.871Z,0.02335
2022-12-20T01:07:34.892Z,0.008873
2022-12-20T01:08:34.932Z,-0.005594
2022-12-20T01:09:34.954Z,0.01734
2022-12-20T01:10:34.985Z,0.002855
2022-12-20T01:11:35.027Z,-0.01164
2022-12-20T01:12:35.054Z,-0.01164
2022-12-20T01:13:35.083Z,-0.01164
2022-12-20T01:14:35.123Z,-0.01164
2022-12-20T01:15:35.160Z,0.006509
2022-12-20T01:16:35.267Z,0.02732
2022-12-20T01:17:35.220Z,0.04928
2022-12-20T01:18:35.255Z,0.04928
2022-12-20T01:19:35.285Z,0.04928
2022-12-20T01:20:35.325Z,0.04928
2022-12-20T01:21:35.354Z,0.03475
2022-12-20T01:22:35.395Z,0.03835
2022-12-20T01:23:35.424Z,0.05554
2022-12-20T01:24:35.458Z,0.02637
2022-12-20T01:25:35.538Z,0.005625
2022-12-20T01:26:35.557Z,-0.01156
2022-12-20T01:27:35.547Z,-0.02613
2022-12-20T01:28:35.586Z,-0.02613
2022-12-20T01:29:35.623Z,-0.04072
2022-12-20T01:30:35.659Z,-0.05532
2022-12-20T01:31:35.722Z,-0.04072
2022-12-20T01:32:35.740Z,-0.05532
2022-12-20T01:33:35.786Z,-0.05532
2022-12-20T01:34:35.801Z,-0.07822
2022-12-20T01:35:35.850Z,-0.07822
2022-12-20T01:36:35.882Z,-0.07822
2022-12-20T01:37:35.907Z,-0.09285
2022-12-20T01:38:35.953Z,-0.11
2022-12-20T01:39:35.976Z,-0.1864
2022-12-20T01:40:36.015Z,-0.1864
2022-12-20T01:41:36.052Z,-0.2036
2022-12-20T01:42:36.084Z,-0.1864
2022-12-20T01:43:36.131Z,-0.2217
2022-12-20T01:44:36.161Z,-0.2071
2022-12-20T01:45:36.236Z,-0.2436
2022-12-20T01:46:36.291Z,-0.2436
2022-12-20T01:47:36.263Z,-0.2436
2022-12-20T01:48:36.291Z,-0.2436
2022-12-20T01:49:36.323Z,-0.2519
2022-12-20T01:50:36.360Z,-0.2519
2022-12-20T01:51:36.402Z,-0.3054
2022-12-20T01:52:36.437Z,-0.2908
2022-12-20T01:53:36.494Z,-0.2908
2022-12-20T01:54:36.520Z,-0.3137
2022-12-20T01:55:36.546Z,-0.3137
2022-12-20T01:56:36.583Z,-0.3137
2022-12-20T01:57:36.631Z,-0.2992
2022-12-20T01:58:36.643Z,-0.2992
2022-12-20T01:59:36.676Z,-0.2992
2022-12-20T02:00:36.718Z,-0.2992
2022-12-20T02:01:36.894Z,-0.3211
2022-12-20T02:02:36.872Z,-0.3211
2022-12-20T02:03:36.864Z,-0.3211
2022-12-20T02:04:36.856Z,-0.3066
2022-12-20T02:05:36.893Z,-0.292
2022-12-20T02:06:36.937Z,-0.3455
2022-12-20T02:07:36.986Z,-0.331
2022-12-20T02:08:37.014Z,-0.2984
2022-12-20T02:09:37.038Z,-0.263
2022-12-20T02:10:37.070Z,-0.2411
2022-12-20T02:11:37.117Z,-0.2411
2022-12-20T02:12:37.144Z,-0.2411
2022-12-20T02:13:37.187Z,-0.2411
2022-12-20T02:14:37.211Z,-0.2556
2022-12-20T02:15:37.252Z,-0.2556
2022-12-20T02:16:37.364Z,-0.2556
2022-12-20T02:17:37.327Z,-0.2556
2022-12-20T02:18:37.354Z,-0.2374
2022-12-20T02:19:37.395Z,-0.2374
2022-12-20T02:20:37.428Z,-0.1792
2022-12-20T02:21:37.495Z,-0.1792
2022-12-20T02:22:37.492Z,-0.1792
2022-12-20T02:23:37.534Z,-0.1792
2022-12-20T02:24:37.565Z,-0.1037
2022-12-20T02:25:37.601Z,-0.1183
2022-12-20T02:26:37.629Z,-0.1037
2022-12-20T02:27:37.663Z,-0.1037
2022-12-20T02:28:37.710Z,-0.1209
2022-12-20T02:29:37.744Z,-0.1391
2022-12-20T02:30:37.776Z,-0.07815
2022-12-20T02:31:37.842Z,-0.07815
2022-12-20T02:32:37.846Z,-0.07815
2022-12-20T02:33:37.887Z,-0.09272
2022-12-20T02:34:37.926Z,-0.0698
2022-12-20T02:35:37.967Z,-0.08437
2022-12-20T02:36:37.997Z,-0.09894
2022-12-20T02:37:38.022Z,-0.07603
2022-12-20T02:38:38.085Z,-0.09063
2022-12-20T02:39:38.094Z,-0.05277
2022-12-20T02:40:38.147Z,-0.03464
2022-12-20T02:41:38.166Z,-0.01746
2022-12-20T02:42:38.197Z,-0.0321
2022-12-20T02:43:38.239Z,-0.0321
2022-12-20T02:44:38.271Z,-0.02384
2022-12-20T02:45:38.328Z,-0.03853
2022-12-20T02:46:38.337Z,-0.03853
2022-12-20T02:47:38.369Z,-0.05321
2022-12-20T02:48:38.403Z,-0.05321
2022-12-20T02:49:38.441Z,-0.0679
2022-12-20T02:50:38.494Z,-0.0826
2022-12-20T02:51:38.503Z,-0.0826
2022-12-20T02:52:38.558Z,-0.0826
2022-12-20T02:53:38.579Z,-0.09734
2022-12-20T02:54:38.611Z,-0.09734
2022-12-20T02:55:38.660Z,-0.1202
2022-12-20T02:56:38.683Z,-0.1202
2022-12-20T02:57:38.705Z,-0.0826
2022-12-20T02:58:38.748Z,-0.0826
2022-12-20T02:59:38.774Z,-0.0826
2022-12-20T03:00:38.795Z,-0.09734
2022-12-20T03:01:38.934Z,-0.0826
2022-12-20T03:02:39.115Z,-0.04637
2022-12-20T03:03:39.041Z,-0.04637
2022-12-20T03:04:38.946Z,-0.06111
2022-12-20T03:05:38.978Z,-0.04637
2022-12-20T03:06:39.006Z,-0.06111
2022-12-20T03:07:39.031Z,-0.02443
2022-12-20T03:08:39.064Z,-0.03918
2022-12-20T03:09:39.103Z,-0.03918
2022-12-20T03:10:39.136Z,-0.01865
2022-12-20T03:11:39.170Z,-0.0005343
2022-12-20T03:12:39.210Z,-0.0005343
2022-12-20T03:13:39.256Z,-0.0005343
2022-12-20T03:14:39.258Z,-0.0005343
2022-12-20T03:15:39.303Z,-0.01529
2022-12-20T03:16:39.371Z,0.02235
2022-12-20T03:17:39.370Z,0.007582
2022-12-20T03:18:39.414Z,0.007582
2022-12-20T03:19:39.459Z,0.04285
2022-12-20T03:20:39.482Z,0.04285
2022-12-20T03:21:39.535Z,0.02805
2022-12-20T03:22:39.567Z,0.02805
2022-12-20T03:23:39.603Z,0.03612
2022-12-20T03:24:39.626Z,0.05092
2022-12-20T03:25:39.657Z,0.03612
2022-12-20T03:26:39.690Z,0.01802
2022-12-20T03:27:39.728Z,0.01802
2022-12-20T03:28:39.752Z,0.02607
2022-12-20T03:29:39.782Z,0.01125
2022-12-20T03:30:39.856Z,0.01125
2022-12-20T03:31:39.847Z,0.02839
2022-12-20T03:32:39.895Z,0.06364
2022-12-20T03:33:39.920Z,0.04877
2022-12-20T03:34:39.951Z,0.04877
2022-12-20T03:35:39.992Z,0.06364
2022-12-20T03:36:40.037Z,0.04877
2022-12-20T03:37:40.061Z,0.03391
2022-12-20T03:38:40.102Z,0.03391
2022-12-20T03:39:40.149Z,0.03391
2022-12-20T03:40:40.175Z,0.03391
2022-12-20T03:41:40.202Z,0.01904
2022-12-20T03:42:40.241Z,0.01904
2022-12-20T03:43:40.315Z,0.01904
2022-12-20T03:44:40.390Z,0.03391
2022-12-20T03:45:40.347Z,-0.001329
2022-12-20T03:46:40.473Z,-0.04133
2022-12-20T03:47:40.422Z,-0.0562
2022-12-20T03:48:40.442Z,-0.0562
2022-12-20T03:49:40.495Z,-0.0381
2022-12-20T03:50:40.523Z,-0.06096
2022-12-20T03:51:40.549Z,-0.09715
2022-12-20T03:52:40.576Z,-0.1543
2022-12-20T03:53:40.607Z,-0.1575
2022-12-20T03:54:40.681Z,-0.1575
2022-12-20T03:55:44.198Z,-0.1507
2022-12-20T03:56:40.720Z,-0.2031
2022-12-20T03:57:40.743Z,-0.1735
2022-12-20T03:58:40.787Z,-0.1635
2022-12-20T03:59:40.826Z,-0.1487
2022-12-20T04:00:40.855Z,-0.134
2022-12-20T04:01:41.078Z,-0.1193
2022-12-20T04:02:41.185Z,-0.1045
2022-12-20T04:03:41.030Z,-0.08983
2022-12-20T04:04:41.006Z,-0.08983
2022-12-20T04:05:41.045Z,-0.08983
2022-12-20T04:06:41.072Z,-0.1127
2022-12-20T04:07:41.110Z,-0.1127
2022-12-20T04:08:41.134Z,-0.1127
2022-12-20T04:09:41.184Z,-0.09803
2022-12-20T04:10:41.210Z,-0.1514
2022-12-20T04:11:41.248Z,-0.1514
2022-12-20T04:12:41.318Z,-0.1416
2022-12-20T04:13:41.356Z,-0.145
2022-12-20T04:14:41.349Z,-0.1269
2022-12-20T04:15:41.449Z,-0.1476
2022-12-20T04:16:46.637Z,-0.1329
2022-12-20T04:17:42.701Z,-0.1329
2022-12-20T04:18:42.732Z,-0.1364
2022-12-20T04:19:42.771Z,-0.08653
2022-12-20T04:20:42.801Z,-0.08653
2022-12-20T04:21:42.839Z,-0.07196
2022-12-20T04:22:42.876Z,-0.08914
2022-12-20T04:23:42.916Z,-0.08914
2022-12-20T04:24:42.957Z,-0.07458
2022-12-20T04:25:42.977Z,-0.08914
2022-12-20T04:26:43.006Z,-0.07458
2022-12-20T04:27:43.038Z,-0.07458
2022-12-20T04:28:43.082Z,-0.04402
2022-12-20T04:29:43.119Z,-0.007487
2022-12-20T04:30:43.186Z,-0.007487
2022-12-20T04:31:43.312Z,-0.007487
2022-12-20T04:32:43.240Z,-0.007487
2022-12-20T04:33:43.267Z,-0.02945
2022-12-20T04:34:43.311Z,-0.007487
2022-12-20T04:35:43.352Z,-0.007487
2022-12-20T04:36:43.390Z,-0.007487
2022-12-20T04:37:43.432Z,-0.02206
2022-12-20T04:38:43.463Z,-0.02206
2022-12-20T04:39:43.490Z,-0.02206
2022-12-20T04:40:43.526Z,-0.02206
2022-12-20T04:41:43.569Z,-0.007487
2022-12-20T04:42:43.606Z,-0.02206
2022-12-20T04:43:43.636Z,-0.007487
2022-12-20T04:44:43.667Z,-0.007487
2022-12-20T04:45:43.699Z,-0.06001
2022-12-20T04:46:43.776Z,-0.06001
2022-12-20T04:47:43.772Z,-0.06001
2022-12-20T04:48:57.317Z,-0.07815
2022-12-20T04:49:43.857Z,-0.07815
2022-12-20T04:50:43.880Z,-0.09272
2022-12-20T04:51:43.937Z,-0.09272
2022-12-20T04:52:47.652Z,-0.09272
2022-12-20T04:53:43.991Z,-0.07458
2022-12-20T04:54:44.031Z,-0.03925
2022-12-20T04:55:44.059Z,-0.02206
2022-12-20T04:56:48.151Z,-0.02206
2022-12-20T04:57:44.132Z,-0.01633
2022-12-20T04:58:44.163Z,-0.01633
2022-12-20T04:59:44.196Z,0.01899
2022-12-20T05:00:44.238Z,0.02377
2022-12-20T05:01:44.525Z,0.009189
2022-12-20T05:02:44.512Z,-0.0054
2022-12-20T05:03:44.394Z,0.05635
2022-12-20T05:04:44.376Z,0.05635
2022-12-20T05:05:44.408Z,0.0417
2022-12-20T05:06:44.453Z,0.04901
2022-12-20T05:07:44.484Z,0.04901
2022-12-20T05:08:44.529Z,0.03435
2022-12-20T05:09:44.545Z,0.07308
2022-12-20T05:10:44.600Z,0.08033
2022-12-20T05:11:44.622Z,0.06562
2022-12-20T05:12:44.670Z,0.0509
2022-12-20T05:13:44.703Z,0.02139
2022-12-20T05:14:44.722Z,0.02139
2022-12-20T05:15:44.798Z,0.02139
2022-12-20T05:16:44.872Z,0.006629
2022-12-20T05:17:44.860Z,0.006629
2022-12-20T05:18:48.817Z,0.02139
2022-12-20T05:19:44.887Z,0.02139
2022-12-20T05:20:44.929Z,0.02139
2022-12-20T05:21:44.963Z,0.006629
2022-12-20T05:22:45.011Z,0.0147
2022-12-20T05:23:45.068Z,0.08523
2022-12-20T05:24:45.083Z,0.08523
2022-12-20T05:25:45.102Z,0.1033
2022-12-20T05:26:45.139Z,0.1033
2022-12-20T05:27:45.153Z,0.08853
2022-12-20T05:28:45.218Z,0.08853
2022-12-20T05:29:45.227Z,0.07371
2022-12-20T05:30:45.261Z,0.07371
2022-12-20T05:31:45.472Z,0.09658
2022-12-20T05:32:45.330Z,0.09658
2022-12-20T05:33:45.372Z,0.09658
2022-12-20T05:34:45.414Z,0.09658
2022-12-20T05:35:45.440Z,0.1318
2022-12-20T05:36:45.477Z,0.1399
2022-12-20T05:37:45.521Z,0.1399
2022-12-20T05:38:45.575Z,0.125
2022-12-20T05:39:45.588Z,0.125
2022-12-20T05:40:45.623Z,0.1101
2022-12-20T05:41:45.675Z,0.09522
2022-12-20T05:42:45.716Z,0.0803
2022-12-20T05:43:45.742Z,0.1022
2022-12-20T05:44:45.786Z,0.08728
2022-12-20T05:45:45.823Z,0.07235
2022-12-20T05:46:45.997Z,0.07235
2022-12-20T05:47:45.894Z,0.07235
2022-12-20T05:48:45.924Z,0.07235
2022-12-20T05:49:45.967Z,0.07235
2022-12-20T05:50:45.994Z,0.07549
2022-12-20T05:51:46.030Z,0.09044
2022-12-20T05:52:46.067Z,0.1304
2022-12-20T05:53:46.105Z,0.1304
2022-12-20T05:54:46.143Z,0.1304
2022-12-20T05:55:46.189Z,0.1304
2022-12-20T05:56:46.219Z,0.1304
2022-12-20T05:57:46.257Z,0.1304
2022-12-20T05:58:46.289Z,0.1304
2022-12-20T05:59:46.342Z,0.1304
2022-12-20T06:00:46.355Z,0.1454
2022-12-20T06:01:46.510Z,0.1815
2022-12-20T06:02:46.715Z,0.1965
2022-12-20T06:03:46.605Z,0.1965
2022-12-20T06:04:46.513Z,0.2114
2022-12-20T06:05:46.526Z,0.1752
2022-12-20T06:06:46.544Z,0.1603
2022-12-20T06:07:46.580Z,0.1752
2022-12-20T06:08:46.624Z,0.1965
2022-12-20T06:09:46.662Z,0.2184
2022-12-20T06:10:46.695Z,0.2184
2022-12-20T06:11:46.738Z,0.2184
2022-12-20T06:12:46.762Z,0.2866
2022-12-20T06:13:46.800Z,0.2866
2022-12-20T06:14:46.839Z,0.3015
2022-12-20T06:15:46.871Z,0.3015
2022-12-20T06:16:47.041Z,0.3164
2022-12-20T06:17:46.933Z,0.3164
2022-12-20T06:18:46.967Z,0.3533
2022-12-20T06:19:47.001Z,0.3462
2022-12-20T06:20:47.024Z,0.383
2022-12-20T06:21:47.058Z,0.3978
2022-12-20T06:22:47.080Z,0.4127
2022-12-20T06:23:47.116Z,0.4275
2022-12-20T06:24:48.807Z,0.4423
2022-12-20T06:25:47.191Z,0.4571
2022-12-20T06:26:47.219Z,0.4719
2022-12-20T06:27:47.265Z,0.4719
2022-12-20T06:28:47.294Z,0.4866
2022-12-20T06:29:47.363Z,0.5014
2022-12-20T06:30:47.381Z,0.5161
2022-12-20T06:31:47.487Z,0.5308
2022-12-20T06:32:47.440Z,0.5455
2022-12-20T06:33:47.487Z,0.5602
2022-12-20T06:34:48.059Z,0.5749
2022-12-20T06:35:48.094Z,0.5896
2022-12-20T06:36:48.147Z,0.6189
2022-12-20T06:37:48.183Z,0.6335
2022-12-20T06:38:48.200Z,0.6163
2022-12-20T06:39:48.239Z,0.6274
2022-12-20T06:40:48.278Z,0.6601
2022-12-20T06:41:48.317Z,0.683
2022-12-20T06:42:48.355Z,0.6976
2022-12-20T06:43:48.385Z,0.6976
2022-12-20T06:44:48.435Z,0.694
2022-12-20T06:45:48.517Z,0.7085
2022-12-20T06:46:48.502Z,0.7085
2022-12-20T06:47:48.529Z,0.7001
2022-12-20T06:48:48.569Z,0.7146
2022-12-20T06:49:48.615Z,0.7292
2022-12-20T06:50:55.308Z,0.7436
2022-12-20T06:51:48.668Z,0.781
2022-12-20T06:52:48.697Z,0.7955
2022-12-20T06:53:51.318Z,0.7955
2022-12-20T06:54:49.346Z,0.81
2022-12-20T06:55:49.375Z,0.81
2022-12-20T06:56:49.407Z,0.8244
2022-12-20T06:57:49.452Z,0.8244
2022-12-20T06:58:49.468Z,0.8388
2022-12-20T06:59:49.512Z,0.8388
2022-12-20T07:00:49.731Z,0.8388
2022-12-20T07:01:49.845Z,0.8532
2022-12-20T07:02:49.746Z,0.8388
2022-12-20T07:03:49.702Z,0.8532
2022-12-20T07:04:49.700Z,0.8388
2022-12-20T07:05:49.723Z,0.8532
2022-12-20T07:06:49.757Z,0.8532
2022-12-20T07:07:49.797Z,0.9068
2022-12-20T07:08:49.820Z,0.9068
2022-12-20T07:09:49.868Z,0.9068
2022-12-20T07:10:49.880Z,0.8972
2022-12-20T07:11:49.920Z,0.9181
2022-12-20T07:12:49.958Z,0.9153
2022-12-20T07:13:50.012Z,0.9181
2022-12-20T07:14:50.029Z,0.9181
2022-12-20T07:15:50.072Z,0.9181
2022-12-20T07:16:50.174Z,0.9181
2022-12-20T07:17:50.167Z,0.9181
2022-12-20T07:18:50.164Z,0.9181
2022-12-20T07:19:51.120Z,0.9037
2022-12-20T07:20:50.237Z,0.9037
2022-12-20T07:21:50.267Z,0.9266
2022-12-20T07:22:50.317Z,0.9266
2022-12-20T07:23:50.329Z,0.9266
2022-12-20T07:24:50.362Z,0.9411
2022-12-20T07:25:50.407Z,0.9411
2022-12-20T07:26:50.432Z,0.9411
2022-12-20T07:27:50.471Z,0.9555
2022-12-20T07:28:50.509Z,0.9555
2022-12-20T07:29:50.539Z,0.97
2022-12-20T07:30:50.574Z,0.97
2022-12-20T07:31:50.663Z,0.9844
2022-12-20T07:32:50.643Z,1.007
2022-12-20T07:33:50.678Z,1.022
2022-12-20T07:34:51.268Z,1.022
2022-12-20T07:35:54.661Z,1.022
2022-12-20T07:36:51.337Z,1.022
2022-12-20T07:37:51.376Z,1.039
2022-12-20T07:38:51.407Z,1.072
2022-12-20T07:39:51.438Z,1.094
2022-12-20T07:40:51.460Z,1.094
2022-12-20T07:41:51.509Z,1.109
2022-12-20T07:42:51.548Z,1.109
2022-12-20T07:43:51.574Z,1.109
2022-12-20T07:44:51.623Z,1.123
2022-12-20T07:45:51.737Z,1.109
2022-12-20T07:46:51.674Z,1.073
2022-12-20T07:47:51.703Z,1.055
2022-12-20T07:48:51.746Z,1.055
2022-12-20T07:49:52.380Z,1.055
2022-12-20T07:50:52.431Z,1.07
2022-12-20T07:51:52.462Z,1.102
2022-12-20T07:52:52.495Z,1.102
2022-12-20T07:53:52.549Z,1.102
2022-12-20T07:54:52.572Z,1.117
2022-12-20T07:55:52.599Z,1.117
2022-12-20T07:56:52.651Z,1.152
2022-12-20T07:57:52.669Z,1.166
2022-12-20T07:58:52.706Z,1.166
2022-12-20T07:59:52.748Z,1.181
2022-12-20T08:00:52.820Z,1.195
2022-12-20T08:01:53.084Z,1.195
2022-12-20T08:02:53.096Z,1.195
2022-12-20T08:03:52.924Z,1.209
2022-12-20T08:04:52.896Z,1.223
2022-12-20T08:05:52.918Z,1.238
2022-12-20T08:06:52.957Z,1.223
2022-12-20T08:07:58.659Z,1.223
2022-12-20T08:08:53.024Z,1.223
2022-12-20T08:09:53.060Z,1.223
2022-12-20T08:10:53.098Z,1.223
2022-12-20T08:11:53.131Z,1.238
2022-12-20T08:12:53.164Z,1.252
2022-12-20T08:13:57.774Z,1.266
2022-12-20T08:14:53.244Z,1.28
2022-12-20T08:15:53.314Z,1.303
2022-12-20T08:16:53.406Z,1.318
2022-12-20T08:17:53.342Z,1.303
2022-12-20T08:18:53.378Z,1.318
2022-12-20T08:19:53.400Z,1.318
2022-12-20T08:20:53.447Z,1.318
2022-12-20T08:21:53.474Z,1.318
2022-12-20T08:22:53.510Z,1.318
2022-12-20T08:23:53.530Z,1.303
2022-12-20T08:24:53.602Z,1.318
2022-12-20T08:25:53.598Z,1.303
2022-12-20T08:26:53.637Z,1.303
2022-12-20T08:27:53.664Z,1.318
2022-12-20T08:28:53.702Z,1.318
2022-12-20T08:29:53.726Z,1.318
2022-12-20T08:30:53.851Z,1.346
2022-12-20T08:31:53.818Z,1.36
2022-12-20T08:32:53.845Z,1.374
2022-12-20T08:33:53.872Z,1.37
2022-12-20T08:34:53.914Z,1.37
2022-12-20T08:35:53.934Z,1.356
2022-12-20T08:36:53.977Z,1.356
2022-12-20T08:37:54.006Z,1.388
2022-12-20T08:38:54.042Z,1.438
2022-12-20T08:39:54.068Z,1.424
2022-12-20T08:40:54.122Z,1.424
2022-12-20T08:41:54.127Z,1.482
2022-12-20T08:42:54.167Z,1.486
2022-12-20T08:43:54.201Z,1.486
2022-12-20T08:44:54.238Z,1.471
2022-12-20T08:45:54.277Z,1.457
2022-12-20T08:46:54.279Z,1.471
2022-12-20T08:47:54.326Z,1.486
2022-12-20T08:48:54.363Z,1.5
2022-12-20T08:49:54.401Z,1.471
2022-12-20T08:50:54.487Z,1.471
2022-12-20T08:51:54.452Z,1.486
2022-12-20T08:52:54.490Z,1.486
2022-12-20T08:53:54.535Z,1.486
2022-12-20T08:54:54.558Z,1.486
2022-12-20T08:55:54.592Z,1.5
2022-12-20T08:56:54.635Z,1.514
2022-12-20T08:57:54.653Z,1.514
2022-12-20T08:58:54.688Z,1.514
2022-12-20T08:59:54.726Z,1.514
2022-12-20T09:00:54.799Z,1.514
2022-12-20T09:01:54.949Z,1.514
2022-12-20T09:02:55.167Z,1.514
2022-12-20T09:03:54.978Z,1.528
2022-12-20T09:04:54.918Z,1.528
2022-12-20T09:05:54.926Z,1.542
2022-12-20T09:06:54.965Z,1.528
2022-12-20T09:07:54.995Z,1.528
2022-12-20T09:08:55.029Z,1.565
2022-12-20T09:09:55.065Z,1.551
2022-12-20T09:10:55.086Z,1.551
2022-12-20T09:11:55.129Z,1.551
2022-12-20T09:12:55.171Z,1.551
2022-12-20T09:13:55.247Z,1.604
2022-12-20T09:14:55.225Z,1.658
2022-12-20T09:15:55.320Z,1.658
2022-12-20T09:16:55.275Z,1.639
2022-12-20T09:17:55.322Z,1.639
2022-12-20T09:19:00.800Z,1.677
2022-12-20T09:19:55.382Z,1.708
2022-12-20T09:20:55.420Z,1.708
2022-12-20T09:21:55.494Z,1.766
2022-12-20T09:22:55.477Z,1.766
2022-12-20T09:23:55.513Z,1.781
2022-12-20T09:24:55.545Z,1.836
2022-12-20T09:25:55.580Z,1.871
2022-12-20T09:26:55.621Z,1.912
2022-12-20T09:27:55.650Z,1.898
2022-12-20T09:28:55.672Z,1.921
2022-12-20T09:29:55.714Z,1.921
2022-12-20T09:30:55.771Z,1.943
2022-12-20T09:31:55.765Z,1.965
2022-12-20T09:32:55.791Z,2.041
2022-12-20T09:33:55.840Z,2.027
2022-12-20T09:34:55.872Z,2.027
2022-12-20T09:35:55.966Z,2.053
2022-12-20T09:36:55.966Z,2.071
2022-12-20T09:37:55.974Z,2.094
2022-12-20T09:38:56.005Z,2.094
2022-12-20T09:39:56.052Z,2.08
2022-12-20T09:40:56.060Z,2.092
2022-12-20T09:41:56.081Z,2.113
2022-12-20T09:42:56.109Z,2.152
2022-12-20T09:43:56.206Z,2.124
2022-12-20T09:44:56.189Z,2.147
2022-12-20T09:45:56.440Z,2.147
2022-12-20T09:46:56.283Z,2.132
2022-12-20T09:47:56.279Z,2.132
2022-12-20T09:48:56.307Z,2.132
2022-12-20T09:49:56.344Z,2.173
2022-12-20T09:50:56.389Z,2.176
2022-12-20T09:51:56.416Z,2.18
2022-12-20T09:52:56.454Z,2.144
2022-12-20T09:53:56.494Z,2.144
2022-12-20T09:54:56.515Z,2.161
2022-12-20T09:55:56.566Z,2.153
2022-12-20T09:56:56.581Z,2.188
2022-12-20T09:57:56.604Z,2.191
2022-12-20T09:58:56.651Z,2.177
2022-12-20T09:59:56.683Z,2.229
2022-12-20T10:00:56.712Z,2.229
2022-12-20T10:01:58.277Z,2.244
2022-12-20T10:03:08.230Z,2.229
2022-12-20T10:03:57.071Z,2.252
2022-12-20T10:04:56.997Z,2.235
2022-12-20T10:05:57.034Z,2.235
2022-12-20T10:06:56.924Z,2.217
2022-12-20T10:07:56.955Z,2.306
2022-12-20T10:08:56.990Z,2.346
2022-12-20T10:09:57.030Z,2.361
2022-12-20T10:10:57.080Z,2.346
2022-12-20T10:11:57.090Z,2.355
2022-12-20T10:12:57.122Z,2.355
2022-12-20T10:13:57.147Z,2.355
2022-12-20T10:14:57.201Z,2.34
2022-12-20T10:15:57.253Z,2.34
2022-12-20T10:16:57.268Z,2.33
2022-12-20T10:17:57.307Z,2.419
2022-12-20T10:18:57.338Z,2.404
2022-12-20T10:19:57.374Z,2.404
2022-12-20T10:20:57.393Z,2.39
2022-12-20T10:21:57.428Z,2.375
2022-12-20T10:22:57.473Z,2.361
2022-12-20T10:23:57.527Z,2.334
2022-12-20T10:24:57.556Z,2.334
2022-12-20T10:25:57.584Z,2.308
2022-12-20T10:26:57.609Z,2.308
2022-12-20T10:27:57.655Z,2.352
2022-12-20T10:28:57.685Z,2.419
2022-12-20T10:29:57.720Z,2.419
2022-12-20T10:30:57.778Z,2.433
2022-12-20T10:31:57.780Z,2.433
2022-12-20T10:32:57.830Z,2.448
2022-12-20T10:33:57.859Z,2.425
2022-12-20T10:34:57.954Z,2.439
2022-12-20T10:35:57.933Z,2.493
2022-12-20T10:36:57.972Z,2.507
2022-12-20T10:38:07.219Z,2.557
2022-12-20T10:38:58.028Z,2.603
2022-12-20T10:40:00.770Z,2.646
2022-12-20T10:41:20.763Z,2.646
2022-12-20T10:41:58.130Z,2.698
2022-12-20T10:42:58.165Z,2.712
2022-12-20T10:43:58.195Z,2.698
2022-12-20T10:44:58.264Z,2.789
2022-12-20T10:45:58.263Z,2.785
2022-12-20T10:46:58.371Z,2.785
2022-12-20T10:47:58.339Z,2.794
2022-12-20T10:48:58.362Z,2.808
2022-12-20T10:49:58.405Z,2.802
2022-12-20T10:50:58.441Z,2.795
2022-12-20T10:51:58.483Z,2.795
2022-12-20T10:52:58.523Z,2.847
2022-12-20T10:53:58.527Z,2.856
2022-12-20T10:54:58.819Z,2.856
2022-12-20T10:55:58.844Z,2.842
2022-12-20T10:56:58.938Z,2.881
2022-12-20T10:57:58.920Z,2.866
2022-12-20T10:58:58.962Z,2.834
2022-12-20T10:59:58.991Z,2.852
2022-12-20T11:00:59.001Z,2.852
2022-12-20T11:01:59.140Z,2.834
2022-12-20T11:02:59.274Z,2.834
2022-12-20T11:03:59.245Z,2.817
2022-12-20T11:04:59.156Z,2.817
2022-12-20T11:05:59.142Z,2.802
2022-12-20T11:06:59.182Z,2.75
2022-12-20T11:08:36.191Z,2.736
2022-12-20T11:09:01.076Z,2.738
2022-12-20T11:09:59.295Z,2.738
2022-12-20T11:10:59.308Z,2.713
2022-12-20T11:11:59.349Z,2.781
2022-12-20T11:12:59.376Z,2.777
2022-12-20T11:13:59.413Z,2.792
2022-12-20T11:14:59.434Z,2.835
2022-12-20T11:15:59.516Z,2.82
2022-12-20T11:16:59.507Z,2.835
2022-12-20T11:17:59.535Z,2.858
2022-12-20T11:18:59.580Z,2.858
2022-12-20T11:19:59.599Z,2.872
2022-12-20T11:20:59.631Z,2.887
2022-12-20T11:21:59.675Z,2.872
2022-12-20T11:22:59.705Z,2.866
2022-12-20T11:23:59.728Z,2.838
2022-12-20T11:24:59.774Z,2.841
2022-12-20T11:25:59.800Z,2.862
2022-12-20T11:26:59.834Z,2.898
2022-12-20T11:27:59.864Z,2.898
2022-12-20T11:28:59.909Z,2.9
2022-12-20T11:29:59.932Z,2.918
2022-12-20T11:31:00.012Z,2.968
2022-12-20T11:32:00.092Z,2.968
2022-12-20T11:33:00.039Z,2.968
2022-12-20T11:34:00.090Z,2.968
2022-12-20T11:35:00.103Z,2.968
2022-12-20T11:36:00.119Z,3.041
2022-12-20T11:37:00.157Z,3.038
2022-12-20T11:38:04.191Z,3.023
2022-12-20T11:39:00.232Z,3.076
2022-12-20T11:40:00.261Z,3.115
2022-12-20T11:41:00.291Z,3.101
2022-12-20T11:42:00.381Z,3.123
2022-12-20T11:43:00.402Z,3.123
2022-12-20T11:44:24.611Z,3.146
2022-12-20T11:45:08.395Z,3.132
2022-12-20T11:46:00.462Z,3.117
2022-12-20T11:47:00.686Z,3.17
2022-12-20T11:48:00.558Z,3.178
2022-12-20T11:49:00.565Z,3.164
2022-12-20T11:50:00.614Z,3.164
2022-12-20T11:51:00.633Z,3.201
2022-12-20T11:52:00.651Z,3.157
2022-12-20T11:53:00.702Z,3.128
2022-12-20T11:54:00.728Z,3.114
2022-12-20T11:55:00.763Z,3.114
2022-12-20T11:56:00.790Z,3.136
2022-12-20T11:57:00.836Z,3.118
2022-12-20T11:58:18.974Z,3.136
2022-12-20T11:59:00.883Z,3.179
2022-12-20T12:00:00.922Z,3.164
2022-12-20T12:01:00.952Z,3.185
2022-12-20T12:02:01.117Z,3.17
2022-12-20T12:03:01.175Z,3.141
2022-12-20T12:04:01.057Z,3.199
2022-12-20T12:05:01.095Z,3.184
2022-12-20T12:06:01.140Z,3.167
2022-12-20T12:07:01.151Z,3.167
2022-12-20T12:08:01.178Z,3.152
2022-12-20T12:09:01.224Z,3.203
2022-12-20T12:10:01.253Z,3.257
2022-12-20T12:11:01.272Z,3.257
2022-12-20T12:12:08.715Z,3.257
2022-12-20T12:13:01.344Z,3.266
2022-12-20T12:14:01.375Z,3.251
2022-12-20T12:15:01.425Z,3.242
2022-12-20T12:16:01.514Z,3.244
2022-12-20T12:17:01.694Z,3.305
2022-12-20T12:18:01.507Z,3.291
2022-12-20T12:19:01.543Z,3.291
2022-12-20T12:20:01.587Z,3.276
2022-12-20T12:21:08.250Z,3.246
2022-12-20T12:22:01.637Z,3.246
2022-12-20T12:23:01.695Z,3.231
2022-12-20T12:24:01.717Z,3.2